sensor_id;sensor_type;location;lat;lon;timestamp;pressure;altitude;pressure_sealevel;temperature;humidity
38225;BME280;24025;48.138;11.428;2023-02-21T00:01:48;95985.81;;;6.97;57.18
38225;BME280;24025;48.138;11.428;2023-02-21T00:04:37;95984.72;;;6.98;57.38
38225;BME280;24025;48.138;11.428;2023-02-21T00:07:26;95990.47;;;7.00;57.16
38225;BME280;24025;48.138;11.428;2023-02-21T00:10:15;95981.44;;;7.01;56.99
38225;BME280;24025;48.138;11.428;2023-02-21T00:13:04;95983.94;;;6.97;57.38
38225;BME280;24025;48.138;11.428;2023-02-21T00:15:53;95985.81;;;6.97;57.46
38225;BME280;24025;48.138;11.428;2023-02-21T00:18:42;95964.94;;;6.95;57.06
38225;BME280;24025;48.138;11.428;2023-02-21T00:21:31;95975.44;;;6.92;56.97
38225;BME280;24025;48.138;11.428;2023-02-21T00:24:20;95975.63;;;6.87;57.53
38225;BME280;24025;48.138;11.428;2023-02-21T00:27:09;95968.78;;;6.86;57.54
38225;BME280;24025;48.138;11.428;2023-02-21T00:29:58;95983.47;;;6.83;57.96
38225;BME280;24025;48.138;11.428;2023-02-21T00:32:47;95975.53;;;6.83;57.65
38225;BME280;24025;48.138;11.428;2023-02-21T00:35:36;95974.75;;;6.82;58.18
38225;BME280;24025;48.138;11.428;2023-02-21T00:38:25;95969.31;;;6.79;57.73
38225;BME280;24025;48.138;11.428;2023-02-21T00:41:13;95977.59;;;6.77;58.17
38225;BME280;24025;48.138;11.428;2023-02-21T00:44:02;95977.91;;;6.76;57.95
38225;BME280;24025;48.138;11.428;2023-02-21T00:46:51;95967.06;;;6.69;58.06
38225;BME280;24025;48.138;11.428;2023-02-21T00:49:41;95974.25;;;6.68;58.27
38225;BME280;24025;48.138;11.428;2023-02-21T00:52:30;95966.19;;;6.65;58.23
38225;BME280;24025;48.138;11.428;2023-02-21T00:55:19;95966.94;;;6.65;58.52
38225;BME280;24025;48.138;11.428;2023-02-21T00:58:08;95952.78;;;6.61;58.54
38225;BME280;24025;48.138;11.428;2023-02-21T01:00:57;95950.81;;;6.58;58.89
38225;BME280;24025;48.138;11.428;2023-02-21T01:03:46;95962.50;;;6.57;59.46
38225;BME280;24025;48.138;11.428;2023-02-21T01:06:35;95957.53;;;6.56;59.25
38225;BME280;24025;48.138;11.428;2023-02-21T01:09:24;95957.38;;;6.52;59.51
38225;BME280;24025;48.138;11.428;2023-02-21T01:12:13;95950.69;;;6.55;59.83
38225;BME280;24025;48.138;11.428;2023-02-21T01:15:02;95950.53;;;6.51;59.92
38225;BME280;24025;48.138;11.428;2023-02-21T01:17:51;95950.34;;;6.56;59.92
38225;BME280;24025;48.138;11.428;2023-02-21T01:20:40;95955.41;;;6.49;60.16
38225;BME280;24025;48.138;11.428;2023-02-21T01:23:30;95946.56;;;6.45;60.16
38225;BME280;24025;48.138;11.428;2023-02-21T01:26:19;95950.19;;;6.40;60.34
38225;BME280;24025;48.138;11.428;2023-02-21T01:29:08;95941.00;;;6.38;60.78
38225;BME280;24025;48.138;11.428;2023-02-21T01:31:57;95943.19;;;6.36;60.69
38225;BME280;24025;48.138;11.428;2023-02-21T01:34:46;95933.91;;;6.30;60.48
38225;BME280;24025;48.138;11.428;2023-02-21T01:37:34;95931.97;;;6.18;61.04
38225;BME280;24025;48.138;11.428;2023-02-21T01:40:24;95932.28;;;6.16;60.56
38225;BME280;24025;48.138;11.428;2023-02-21T01:43:14;95937.78;;;6.11;61.10
38225;BME280;24025;48.138;11.428;2023-02-21T01:46:04;95932.66;;;6.06;61.31
38225;BME280;24025;48.138;11.428;2023-02-21T01:48:54;95929.91;;;6.03;61.48
38225;BME280;24025;48.138;11.428;2023-02-21T01:51:44;95928.53;;;5.96;61.66
38225;BME280;24025;48.138;11.428;2023-02-21T01:54:38;95924.69;;;5.94;61.67
38225;BME280;24025;48.138;11.428;2023-02-21T01:57:29;95914.56;;;5.87;61.66
38225;BME280;24025;48.138;11.428;2023-02-21T02:00:18;95924.31;;;5.75;61.72
38225;BME280;24025;48.138;11.428;2023-02-21T02:03:10;95907.84;;;5.69;62.45
38225;BME280;24025;48.138;11.428;2023-02-21T02:06:07;95919.53;;;5.68;62.40
38225;BME280;24025;48.138;11.428;2023-02-21T02:08:56;95913.31;;;5.64;62.23
38225;BME280;24025;48.138;11.428;2023-02-21T02:12:07;95902.03;;;5.46;62.33
38225;BME280;24025;48.138;11.428;2023-02-21T02:27:09;95895.94;;;5.25;62.78
38225;BME280;24025;48.138;11.428;2023-02-21T02:30:12;95889.91;;;5.16;63.74
38225;BME280;24025;48.138;11.428;2023-02-21T02:33:15;95904.84;;;5.11;63.26
38225;BME280;24025;48.138;11.428;2023-02-21T02:36:01;95896.78;;;5.08;63.77
38225;BME280;24025;48.138;11.428;2023-02-21T02:38:47;95897.25;;;5.10;63.80
38225;BME280;24025;48.138;11.428;2023-02-21T02:41:54;95900.66;;;5.10;63.42
38225;BME280;24025;48.138;11.428;2023-02-21T02:44:32;95900.66;;;5.10;63.48
38225;BME280;24025;48.138;11.428;2023-02-21T02:47:15;95898.03;;;5.02;63.81
38225;BME280;24025;48.138;11.428;2023-02-21T02:49:50;95896.22;;;4.94;64.21
38225;BME280;24025;48.138;11.428;2023-02-21T02:52:21;95888.91;;;4.91;63.76
38225;BME280;24025;48.138;11.428;2023-02-21T02:55:00;95895.16;;;4.86;63.78
38225;BME280;24025;48.138;11.428;2023-02-21T02:57:33;95891.59;;;4.82;64.21
38225;BME280;24025;48.138;11.428;2023-02-21T03:00:10;95886.63;;;4.80;64.71
38225;BME280;24025;48.138;11.428;2023-02-21T03:09:10;95891.47;;;4.78;64.69
38225;BME280;24025;48.138;11.428;2023-02-21T03:11:32;95895.31;;;4.81;64.22
38225;BME280;24025;48.138;11.428;2023-02-21T03:14:08;95894.09;;;4.78;63.94
38225;BME280;24025;48.138;11.428;2023-02-21T03:16:59;95892.06;;;4.75;64.59
38225;BME280;24025;48.138;11.428;2023-02-21T03:19:34;95893.03;;;4.71;64.69
38225;BME280;24025;48.138;11.428;2023-02-21T03:22:09;95893.34;;;4.69;64.65
38225;BME280;24025;48.138;11.428;2023-02-21T03:24:42;95889.16;;;4.68;64.55
38225;BME280;24025;48.138;11.428;2023-02-21T03:27:14;95897.84;;;4.69;65.13
38225;BME280;24025;48.138;11.428;2023-02-21T03:29:49;95898.66;;;4.61;65.27
38225;BME280;24025;48.138;11.428;2023-02-21T03:32:30;95896.94;;;4.56;65.25
38225;BME280;24025;48.138;11.428;2023-02-21T03:35:02;95904.72;;;4.52;65.19
38225;BME280;24025;48.138;11.428;2023-02-21T03:37:38;95902.56;;;4.46;65.22
38225;BME280;24025;48.138;11.428;2023-02-21T03:40:20;95893.84;;;4.45;65.03
38225;BME280;24025;48.138;11.428;2023-02-21T03:42:54;95893.09;;;4.36;65.67
38225;BME280;24025;48.138;11.428;2023-02-21T03:45:25;95900.38;;;4.39;65.31
38225;BME280;24025;48.138;11.428;2023-02-21T03:47:55;95898.38;;;4.36;65.67
38225;BME280;24025;48.138;11.428;2023-02-21T03:50:25;95895.88;;;4.40;65.84
38225;BME280;24025;48.138;11.428;2023-02-21T03:52:56;95900.69;;;4.38;65.35
38225;BME280;24025;48.138;11.428;2023-02-21T03:55:26;95902.09;;;4.35;65.96
38225;BME280;24025;48.138;11.428;2023-02-21T03:57:57;95903.97;;;4.35;66.13
38225;BME280;24025;48.138;11.428;2023-02-21T04:00:27;95897.44;;;4.32;65.69
38225;BME280;24025;48.138;11.428;2023-02-21T04:02:57;95898.84;;;4.30;66.58
38225;BME280;24025;48.138;11.428;2023-02-21T04:05:28;95905.66;;;4.31;66.10
38225;BME280;24025;48.138;11.428;2023-02-21T04:07:58;95898.22;;;4.24;66.63
38225;BME280;24025;48.138;11.428;2023-02-21T04:10:29;95905.66;;;4.22;66.26
38225;BME280;24025;48.138;11.428;2023-02-21T04:12:59;95904.44;;;4.19;66.94
38225;BME280;24025;48.138;11.428;2023-02-21T04:15:29;95909.72;;;4.11;66.89
38225;BME280;24025;48.138;11.428;2023-02-21T04:18:00;95901.34;;;4.09;67.57
38225;BME280;24025;48.138;11.428;2023-02-21T04:20:30;95899.31;;;4.06;66.76
38225;BME280;24025;48.138;11.428;2023-02-21T04:23:03;95902.44;;;4.08;67.07
38225;BME280;24025;48.138;11.428;2023-02-21T04:25:34;95904.44;;;4.02;67.19
38225;BME280;24025;48.138;11.428;2023-02-21T04:28:04;95901.03;;;4.02;67.36
38225;BME280;24025;48.138;11.428;2023-02-21T04:30:34;95906.44;;;4.05;66.83
38225;BME280;24025;48.138;11.428;2023-02-21T04:33:07;95897.75;;;4.05;67.10
38225;BME280;24025;48.138;11.428;2023-02-21T04:35:38;95896.22;;;4.04;67.70
38225;BME280;24025;48.138;11.428;2023-02-21T04:38:08;95896.22;;;4.04;67.57
38225;BME280;24025;48.138;11.428;2023-02-21T04:40:38;95886.44;;;4.04;67.09
38225;BME280;24025;48.138;11.428;2023-02-21T04:43:09;95895.44;;;4.03;68.12
38225;BME280;24025;48.138;11.428;2023-02-21T04:45:39;95893.44;;;4.00;68.23
38225;BME280;24025;48.138;11.428;2023-02-21T04:48:09;95891.09;;;3.98;67.82
38225;BME280;24025;48.138;11.428;2023-02-21T04:50:40;95887.97;;;3.96;67.51
38225;BME280;24025;48.138;11.428;2023-02-21T04:53:10;95887.22;;;3.96;68.50
38225;BME280;24025;48.138;11.428;2023-02-21T04:55:41;95885.34;;;3.96;68.35
38225;BME280;24025;48.138;11.428;2023-02-21T04:58:11;95877.44;;;3.96;68.62
38225;BME280;24025;48.138;11.428;2023-02-21T05:00:41;95878.69;;;3.99;68.52
38225;BME280;24025;48.138;11.428;2023-02-21T05:03:12;95880.84;;;3.97;69.10
38225;BME280;24025;48.138;11.428;2023-02-21T05:05:43;95871.88;;;3.98;69.21
38225;BME280;24025;48.138;11.428;2023-02-21T05:08:13;95876.34;;;3.97;68.42
38225;BME280;24025;48.138;11.428;2023-02-21T05:10:44;95866.59;;;3.98;69.82
38225;BME280;24025;48.138;11.428;2023-02-21T05:13:15;95874.97;;;4.00;69.32
38225;BME280;24025;48.138;11.428;2023-02-21T05:15:46;95869.50;;;3.96;69.10
38225;BME280;24025;48.138;11.428;2023-02-21T05:18:16;95871.56;;;4.00;69.62
38225;BME280;24025;48.138;11.428;2023-02-21T05:20:51;95870.78;;;3.99;70.18
38225;BME280;24025;48.138;11.428;2023-02-21T05:23:22;95875.75;;;4.01;70.32
38225;BME280;24025;48.138;11.428;2023-02-21T05:28:35;95859.59;;;4.11;69.71
38225;BME280;24025;48.138;11.428;2023-02-21T05:31:07;95864.09;;;4.10;69.29
38225;BME280;24025;48.138;11.428;2023-02-21T05:33:37;95865.63;;;4.11;69.63
38225;BME280;24025;48.138;11.428;2023-02-21T05:36:08;95864.09;;;4.10;69.97
38225;BME280;24025;48.138;11.428;2023-02-21T05:38:50;95863.00;;;4.11;69.70
38225;BME280;24025;48.138;11.428;2023-02-21T05:41:21;95857.25;;;4.09;69.89
38225;BME280;24025;48.138;11.428;2023-02-21T05:43:52;95868.28;;;4.11;70.32
38225;BME280;24025;48.138;11.428;2023-02-21T05:46:28;95861.78;;;4.09;69.80
38225;BME280;24025;48.138;11.428;2023-02-21T05:49:01;95863.63;;;4.08;69.62
38225;BME280;24025;48.138;11.428;2023-02-21T05:51:36;95862.84;;;4.08;69.41
38225;BME280;24025;48.138;11.428;2023-02-21T05:54:08;95854.78;;;4.04;69.83
38225;BME280;24025;48.138;11.428;2023-02-21T05:56:41;95854.31;;;4.02;69.50
38225;BME280;24025;48.138;11.428;2023-02-21T05:59:12;95856.94;;;4.02;69.79
38225;BME280;24025;48.138;11.428;2023-02-21T06:01:43;95851.34;;;4.04;70.78
38225;BME280;24025;48.138;11.428;2023-02-21T06:04:13;95857.09;;;4.06;70.25
38225;BME280;24025;48.138;11.428;2023-02-21T06:06:44;95857.59;;;3.99;70.97
38225;BME280;24025;48.138;11.428;2023-02-21T06:09:17;95849.34;;;4.01;71.06
38225;BME280;24025;48.138;11.428;2023-02-21T06:11:48;95851.81;;;4.06;71.05
38225;BME280;24025;48.138;11.428;2023-02-21T06:14:19;95857.25;;;4.09;70.84
38225;BME280;24025;48.138;11.428;2023-02-21T06:16:50;95858.81;;;4.10;71.09
38225;BME280;24025;48.138;11.428;2023-02-21T06:19:20;95859.13;;;4.17;70.94
38225;BME280;24025;48.138;11.428;2023-02-21T06:21:50;95855.53;;;4.22;69.78
38225;BME280;24025;48.138;11.428;2023-02-21T06:24:21;95859.72;;;4.23;70.42
38225;BME280;24025;48.138;11.428;2023-02-21T06:26:51;95857.56;;;4.25;70.09
38225;BME280;24025;48.138;11.428;2023-02-21T06:29:21;95859.44;;;4.24;70.62
38225;BME280;24025;48.138;11.428;2023-02-21T06:31:56;95864.06;;;4.28;69.77
38225;BME280;24025;48.138;11.428;2023-02-21T06:34:27;95866.25;;;4.34;69.16
38225;BME280;24025;48.138;11.428;2023-02-21T06:36:57;95864.69;;;4.42;69.35
38225;BME280;24025;48.138;11.428;2023-02-21T06:39:28;95871.78;;;4.41;69.32
38225;BME280;24025;48.138;11.428;2023-02-21T06:41:59;95871.97;;;4.45;69.46
38225;BME280;24025;48.138;11.428;2023-02-21T06:44:29;95881.44;;;4.46;69.22
38225;BME280;24025;48.138;11.428;2023-02-21T06:46:59;95878.31;;;4.52;69.12
38225;BME280;24025;48.138;11.428;2023-02-21T06:49:30;95879.22;;;4.57;68.46
38225;BME280;24025;48.138;11.428;2023-02-21T06:52:00;95884.69;;;4.60;68.27
38225;BME280;24025;48.138;11.428;2023-02-21T06:54:31;95879.84;;;4.62;66.92
38225;BME280;24025;48.138;11.428;2023-02-21T06:57:01;95881.69;;;4.70;67.09
38225;BME280;24025;48.138;11.428;2023-02-21T06:59:32;95889.59;;;4.79;66.73
38225;BME280;24025;48.138;11.428;2023-02-21T07:02:02;95889.56;;;4.88;66.32
38225;BME280;24025;48.138;11.428;2023-02-21T07:04:33;95889.38;;;4.93;65.76
38225;BME280;24025;48.138;11.428;2023-02-21T07:07:04;95889.53;;;4.96;64.86
38225;BME280;24025;48.138;11.428;2023-02-21T07:09:34;95891.06;;;5.06;64.84
38225;BME280;24025;48.138;11.428;2023-02-21T07:12:05;95897.84;;;5.16;65.13
38225;BME280;24025;48.138;11.428;2023-02-21T07:14:37;95897.97;;;5.19;64.33
38225;BME280;24025;48.138;11.428;2023-02-21T07:17:08;95899.03;;;5.27;64.55
38225;BME280;24025;48.138;11.428;2023-02-21T07:19:38;95898.53;;;5.33;65.22
38225;BME280;24025;48.138;11.428;2023-02-21T07:22:09;95901.91;;;5.43;64.82
38225;BME280;24025;48.138;11.428;2023-02-21T07:24:40;95899.88;;;5.48;63.61
38225;BME280;24025;48.138;11.428;2023-02-21T07:27:10;95903.25;;;5.57;63.30
38225;BME280;24025;48.138;11.428;2023-02-21T07:29:41;95900.69;;;5.69;63.96
38225;BME280;24025;48.138;11.428;2023-02-21T07:32:11;95906.22;;;5.77;63.59
38225;BME280;24025;48.138;11.428;2023-02-21T07:34:42;95897.13;;;5.86;62.52
38225;BME280;24025;48.138;11.428;2023-02-21T07:37:13;95892.91;;;5.94;63.27
38225;BME280;24025;48.138;11.428;2023-02-21T07:39:43;95895.81;;;6.01;62.44
38225;BME280;24025;48.138;11.428;2023-02-21T07:42:14;95891.25;;;6.10;62.24
38225;BME280;24025;48.138;11.428;2023-02-21T07:44:44;95895.22;;;6.16;62.11
38225;BME280;24025;48.138;11.428;2023-02-21T07:47:15;95894.59;;;6.19;61.81
38225;BME280;24025;48.138;11.428;2023-02-21T07:49:45;95899.34;;;6.26;61.97
38225;BME280;24025;48.138;11.428;2023-02-21T07:52:16;95898.50;;;6.34;62.28
38225;BME280;24025;48.138;11.428;2023-02-21T07:54:46;95905.59;;;6.42;62.20
38225;BME280;24025;48.138;11.428;2023-02-21T07:57:17;95905.84;;;6.49;61.63
38225;BME280;24025;48.138;11.428;2023-02-21T07:59:47;95910.72;;;6.60;61.29
38225;BME280;24025;48.138;11.428;2023-02-21T08:02:18;95902.84;;;6.72;61.23
38225;BME280;24025;48.138;11.428;2023-02-21T08:04:49;95905.84;;;6.82;60.62
38225;BME280;24025;48.138;11.428;2023-02-21T08:07:20;95906.63;;;6.95;60.26
38225;BME280;24025;48.138;11.428;2023-02-21T08:09:50;95909.63;;;7.06;60.41
38225;BME280;24025;48.138;11.428;2023-02-21T08:12:21;95908.75;;;7.14;59.34
38225;BME280;24025;48.138;11.428;2023-02-21T08:14:51;95907.66;;;7.27;59.52
38225;BME280;24025;48.138;11.428;2023-02-21T08:17:21;95909.88;;;7.37;59.57
38225;BME280;24025;48.138;11.428;2023-02-21T08:19:52;95907.22;;;7.50;58.68
38225;BME280;24025;48.138;11.428;2023-02-21T08:22:22;95905.34;;;7.62;57.53
38225;BME280;24025;48.138;11.428;2023-02-21T08:24:53;95905.31;;;7.75;57.66
38225;BME280;24025;48.138;11.428;2023-02-21T08:27:23;95909.84;;;7.86;57.63
38225;BME280;24025;48.138;11.428;2023-02-21T08:29:53;95915.81;;;7.95;57.04
38225;BME280;24025;48.138;11.428;2023-02-21T08:32:24;95914.88;;;8.04;56.02
38225;BME280;24025;48.138;11.428;2023-02-21T08:34:55;95918.50;;;8.11;55.78
38225;BME280;24025;48.138;11.428;2023-02-21T08:37:26;95911.88;;;8.17;55.10
38225;BME280;24025;48.138;11.428;2023-02-21T08:40:03;95920.03;;;8.24;55.14
38225;BME280;24025;48.138;11.428;2023-02-21T08:42:33;95924.78;;;8.31;54.67
38225;BME280;24025;48.138;11.428;2023-02-21T08:45:04;95922.34;;;8.38;55.08
38225;BME280;24025;48.138;11.428;2023-02-21T08:47:34;95923.31;;;8.46;54.89
38225;BME280;24025;48.138;11.428;2023-02-21T08:50:05;95923.06;;;8.51;54.27
38225;BME280;24025;48.138;11.428;2023-02-21T08:52:36;95919.06;;;8.57;54.44
38225;BME280;24025;48.138;11.428;2023-02-21T08:55:07;95919.25;;;8.64;54.26
38225;BME280;24025;48.138;11.428;2023-02-21T08:57:37;95912.22;;;8.72;54.38
38225;BME280;24025;48.138;11.428;2023-02-21T09:00:08;95911.31;;;8.80;54.32
38225;BME280;24025;48.138;11.428;2023-02-21T09:02:43;95918.44;;;8.92;53.23
38225;BME280;24025;48.138;11.428;2023-02-21T09:05:19;95917.50;;;9.00;52.75
38225;BME280;24025;48.138;11.428;2023-02-21T09:07:54;95927.97;;;9.08;53.77
38225;BME280;24025;48.138;11.428;2023-02-21T09:10:29;95919.41;;;9.15;52.60
38225;BME280;24025;48.138;11.428;2023-02-21T09:13:01;95921.13;;;9.23;51.63
38225;BME280;24025;48.138;11.428;2023-02-21T09:15:32;95912.97;;;9.32;51.06
38225;BME280;24025;48.138;11.428;2023-02-21T09:18:03;95912.44;;;9.42;51.15
38225;BME280;24025;48.138;11.428;2023-02-21T09:20:33;95909.25;;;9.52;50.19
38225;BME280;24025;48.138;11.428;2023-02-21T09:23:03;95910.13;;;9.56;49.84
38225;BME280;24025;48.138;11.428;2023-02-21T09:25:34;95915.34;;;9.69;48.91
38225;BME280;24025;48.138;11.428;2023-02-21T09:28:04;95912.41;;;9.74;48.49
38225;BME280;24025;48.138;11.428;2023-02-21T09:30:35;95901.94;;;9.81;48.35
38225;BME280;24025;48.138;11.428;2023-02-21T09:33:05;95910.91;;;9.92;49.41
38225;BME280;24025;48.138;11.428;2023-02-21T09:35:35;95906.16;;;10.01;48.49
38225;BME280;24025;48.138;11.428;2023-02-21T09:38:08;95907.91;;;10.13;48.05
38225;BME280;24025;48.138;11.428;2023-02-21T09:40:47;95903.69;;;10.28;48.20
38225;BME280;24025;48.138;11.428;2023-02-21T09:43:37;95904.25;;;10.37;47.48
38225;BME280;24025;48.138;11.428;2023-02-21T09:46:33;95904.41;;;10.44;47.58
38225;BME280;24025;48.138;11.428;2023-02-21T09:49:16;95902.97;;;10.50;47.55
38225;BME280;24025;48.138;11.428;2023-02-21T09:51:51;95903.13;;;10.57;48.82
38225;BME280;24025;48.138;11.428;2023-02-21T09:56:56;95898.84;;;10.72;47.23
38225;BME280;24025;48.138;11.428;2023-02-21T09:59:29;95902.41;;;10.80;47.27
38225;BME280;24025;48.138;11.428;2023-02-21T10:10:13;95892.22;;;11.08;45.80
38225;BME280;24025;48.138;11.428;2023-02-21T10:12:54;95896.19;;;11.18;45.62
38225;BME280;24025;48.138;11.428;2023-02-21T10:15:59;95897.00;;;11.22;45.82
38225;BME280;24025;48.138;11.428;2023-02-21T10:18:37;95897.31;;;11.40;46.55
38225;BME280;24025;48.138;11.428;2023-02-21T10:21:37;95891.03;;;11.55;45.66
38225;BME280;24025;48.138;11.428;2023-02-21T10:24:15;95895.78;;;11.65;45.56
38225;BME280;24025;48.138;11.428;2023-02-21T10:27:21;95897.75;;;11.68;45.23
38225;BME280;24025;48.138;11.428;2023-02-21T10:30:00;95892.31;;;11.87;46.17
38225;BME280;24025;48.138;11.428;2023-02-21T10:32:33;95896.88;;;11.87;45.30
38225;BME280;24025;48.138;11.428;2023-02-21T10:35:04;95897.81;;;11.98;45.48
38225;BME280;24025;48.138;11.428;2023-02-21T10:37:47;95898.81;;;12.16;44.69
38225;BME280;24025;48.138;11.428;2023-02-21T10:40:59;95901.53;;;12.20;44.73
38225;BME280;24025;48.138;11.428;2023-02-21T10:43:37;95892.91;;;12.34;44.22
38225;BME280;24025;48.138;11.428;2023-02-21T10:49:27;95892.13;;;12.67;44.98
38225;BME280;24025;48.138;11.428;2023-02-21T10:52:13;95890.34;;;12.78;42.73
38225;BME280;24025;48.138;11.428;2023-02-21T10:54:59;95883.06;;;12.79;42.93
38225;BME280;24025;48.138;11.428;2023-02-21T10:57:32;95879.38;;;12.90;42.91
38225;BME280;24025;48.138;11.428;2023-02-21T11:00:03;95877.91;;;12.96;42.61
38225;BME280;24025;48.138;11.428;2023-02-21T11:02:40;95871.91;;;13.10;42.41
38225;BME280;24025;48.138;11.428;2023-02-21T11:05:19;95881.59;;;13.22;41.38
38225;BME280;24025;48.138;11.428;2023-02-21T11:08:05;95869.81;;;13.30;40.76
38225;BME280;24025;48.138;11.428;2023-02-21T11:10:39;95866.50;;;13.51;40.63
38225;BME280;24025;48.138;11.428;2023-02-21T11:13:20;95867.97;;;13.41;39.91
38225;BME280;24025;48.138;11.428;2023-02-21T11:16:09;95852.38;;;13.54;39.94
38225;BME280;24025;48.138;11.428;2023-02-21T11:18:39;95855.22;;;13.82;40.88
38225;BME280;24025;48.138;11.428;2023-02-21T11:21:13;95844.97;;;14.02;39.98
38225;BME280;24025;48.138;11.428;2023-02-21T11:23:51;95844.97;;;13.99;39.61
38225;BME280;24025;48.138;11.428;2023-02-21T11:26:34;95842.41;;;14.27;39.24
38225;BME280;24025;48.138;11.428;2023-02-21T11:29:17;95838.25;;;14.40;38.50
38225;BME280;24025;48.138;11.428;2023-02-21T11:31:52;95829.09;;;14.49;38.44
38225;BME280;24025;48.138;11.428;2023-02-21T11:34:25;95827.22;;;14.67;38.12
38225;BME280;24025;48.138;11.428;2023-02-21T11:37:02;95821.81;;;14.49;38.61
38225;BME280;24025;48.138;11.428;2023-02-21T11:39:33;95818.78;;;14.68;38.61
38225;BME280;24025;48.138;11.428;2023-02-21T11:45:11;95809.22;;;14.85;37.80
38225;BME280;24025;48.138;11.428;2023-02-21T11:47:47;95803.09;;;15.13;38.01
38225;BME280;24025;48.138;11.428;2023-02-21T11:50:32;95811.16;;;15.06;38.08
38225;BME280;24025;48.138;11.428;2023-02-21T11:53:38;95809.59;;;15.19;37.67
38225;BME280;24025;48.138;11.428;2023-02-21T11:56:20;95798.06;;;15.37;37.26
38225;BME280;24025;48.138;11.428;2023-02-21T11:59:19;95791.53;;;15.63;37.93
38225;BME280;24025;48.138;11.428;2023-02-21T12:02:15;95788.38;;;15.93;36.68
38225;BME280;24025;48.138;11.428;2023-02-21T12:07:49;95788.03;;;15.83;36.51
38225;BME280;24025;48.138;11.428;2023-02-21T12:26:59;95767.00;;;16.41;36.19
38225;BME280;24025;48.138;11.428;2023-02-21T12:37:56;95735.38;;;20.01;30.62
38225;BME280;24025;48.138;11.428;2023-02-21T12:46:37;95729.31;;;19.97;29.86
38225;BME280;24025;48.138;11.428;2023-02-21T12:49:23;95723.44;;;23.08;26.59
38225;BME280;24025;48.138;11.428;2023-02-21T12:54:57;95702.47;;;27.56;21.70
38225;BME280;24025;48.138;11.428;2023-02-21T13:11:13;95684.69;;;30.17;16.89
38225;BME280;24025;48.138;11.428;2023-02-21T13:13:46;95665.53;;;31.91;16.09
38225;BME280;24025;48.138;11.428;2023-02-21T13:16:17;95664.13;;;31.30;16.32
38225;BME280;24025;48.138;11.428;2023-02-21T13:19:09;95662.22;;;31.75;16.15
38225;BME280;24025;48.138;11.428;2023-02-21T13:24:43;95660.13;;;31.42;16.53
38225;BME280;24025;48.138;11.428;2023-02-21T13:27:38;95650.47;;;31.10;16.26
38225;BME280;24025;48.138;11.428;2023-02-21T13:33:24;95655.72;;;30.59;17.34
38225;BME280;24025;48.138;11.428;2023-02-21T13:35:57;95641.47;;;30.24;17.34
38225;BME280;24025;48.138;11.428;2023-02-21T13:38:30;95642.56;;;30.75;17.37
38225;BME280;24025;48.138;11.428;2023-02-21T13:41:05;95633.84;;;30.87;16.37
38225;BME280;24025;48.138;11.428;2023-02-21T13:43:46;95631.34;;;30.89;16.89
38225;BME280;24025;48.138;11.428;2023-02-21T13:46:23;95636.28;;;30.31;17.77
38225;BME280;24025;48.138;11.428;2023-02-21T14:11:17;95604.19;;;28.37;18.66
38225;BME280;24025;48.138;11.428;2023-02-21T14:16:31;95604.81;;;24.66;22.88
38225;BME280;24025;48.138;11.428;2023-02-21T14:19:10;95605.69;;;22.73;25.38
38225;BME280;24025;48.138;11.428;2023-02-21T14:21:44;95607.78;;;20.97;27.41
38225;BME280;24025;48.138;11.428;2023-02-21T14:24:22;95598.38;;;20.23;28.89
38225;BME280;24025;48.138;11.428;2023-02-21T14:27:03;95599.91;;;19.32;30.04
38225;BME280;24025;48.138;11.428;2023-02-21T14:29:35;95598.09;;;18.86;30.59
38225;BME280;24025;48.138;11.428;2023-02-21T14:34:57;95601.31;;;18.07;32.44
38225;BME280;24025;48.138;11.428;2023-02-21T14:53:59;95582.63;;;16.63;35.34
38225;BME280;24025;48.138;11.428;2023-02-21T14:59:48;95567.69;;;16.55;35.97
38225;BME280;24025;48.138;11.428;2023-02-21T15:02:32;95559.28;;;16.50;37.36
38225;BME280;24025;48.138;11.428;2023-02-21T15:08:23;95557.97;;;16.24;36.69
38225;BME280;24025;48.138;11.428;2023-02-21T15:10:58;95554.22;;;16.14;36.65
38225;BME280;24025;48.138;11.428;2023-02-21T15:13:33;95553.44;;;16.13;36.53
38225;BME280;24025;48.138;11.428;2023-02-21T15:16:06;95542.72;;;16.10;37.03
38225;BME280;24025;48.138;11.428;2023-02-21T15:18:58;95550.44;;;16.04;36.73
38225;BME280;24025;48.138;11.428;2023-02-21T15:21:29;95544.34;;;15.97;37.16
38225;BME280;24025;48.138;11.428;2023-02-21T15:24:19;95539.34;;;15.99;38.30
38225;BME280;24025;48.138;11.428;2023-02-21T15:27:07;95536.28;;;16.00;39.17
38225;BME280;24025;48.138;11.428;2023-02-21T15:29:39;95534.41;;;15.90;37.75
38225;BME280;24025;48.138;11.428;2023-02-21T15:32:10;95534.41;;;15.90;37.64
38225;BME280;24025;48.138;11.428;2023-02-21T15:34:44;95536.72;;;15.92;40.06
38225;BME280;24025;48.138;11.428;2023-02-21T15:37:20;95534.09;;;15.84;39.18
38225;BME280;24025;48.138;11.428;2023-02-21T15:40:07;95536.00;;;15.80;40.68
38225;BME280;24025;48.138;11.428;2023-02-21T15:42:44;95542.19;;;15.77;41.43
38225;BME280;24025;48.138;11.428;2023-02-21T15:46:00;95528.03;;;15.73;41.70
38225;BME280;24025;48.138;11.428;2023-02-21T15:48:11;95524.97;;;15.68;39.11
38225;BME280;24025;48.138;11.428;2023-02-21T15:50:44;95521.19;;;15.58;42.25
38225;BME280;24025;48.138;11.428;2023-02-21T15:53:17;95518.53;;;15.51;42.35
38225;BME280;24025;48.138;11.428;2023-02-21T15:55:48;95516.72;;;15.34;43.27
38225;BME280;24025;48.138;11.428;2023-02-21T15:58:24;95517.16;;;15.25;42.75
38225;BME280;24025;48.138;11.428;2023-02-21T16:01:07;95521.81;;;15.10;43.40
38225;BME280;24025;48.138;11.428;2023-02-21T16:03:42;95517.69;;;14.95;42.68
38225;BME280;24025;48.138;11.428;2023-02-21T16:09:15;95517.78;;;14.70;44.50
38225;BME280;24025;48.138;11.428;2023-02-21T16:11:58;95510.56;;;14.49;45.21
38225;BME280;24025;48.138;11.428;2023-02-21T16:15:37;95502.50;;;14.35;45.32
38225;BME280;24025;48.138;11.428;2023-02-21T16:17:38;95519.38;;;14.21;46.98
38225;BME280;24025;48.138;11.428;2023-02-21T16:20:21;95512.13;;;14.07;46.03